RKSI/ICN METAR and TAF weather

Enter ICAO airport designator
Station Type Date Time Source
RKSI METAR 2019/04/18 14:30 UTC NOAA

RKSI 181430Z 15005KT 0400 0150SW R15L/0325 R16/0250 FG BKN001 09/07 Q1014 NOSIG


Station Type Date Time Source
RKSI Decoded METAR 2019/04/18 14:30 UTC NOAA

Incheon International Airport, Korea, South (RKSI) 37-28N 126-27E
Apr 18, 2019 - 10:30 AM EDT / 2019.04.18 1430 UTC
Wind: from the SSE (150 degrees) at 6 MPH (5 KT):0
Visibility: less than 1 mile:0
Sky conditions: mostly cloudy
Weather: fog
Temperature: 48 F (9 C)
Dew Point: 44 F (7 C)
Relative Humidity: 87%
Pressure (altimeter): 29.94 in. Hg (1014 hPa)
ob: RKSI 181430Z 15005KT 0400 0150SW R15L/0325 R16/0250 FG BKN001 09/07 Q1014 NOSIG
cycle: 14

Station Type Date Time Source
RKSI TAF 2019/04/18 13:06 UTC NOAA

TAF
AMD TAF
AMD RKSI 181305Z 1813/1918 30005KT 2500 BR SCT005 BKN020 TN07/1821Z TX17/1906Z
TEMPO 1813/1818 0400 FG BKN002
BECMG 1819/1820 07007KT
BECMG 1821/1822 3500
BECMG 1823/1824 7000 NSW SCT030
BECMG 1905/1906 33007KT

Example: see airport list